Aeroporto :
LOGIN :

Iscrizione | Disclaimer

   EN    FR    IT 

 










Sommario :    VFR   VFR Marginale   IFR   IFR Intensivo   IFR Molto Intensivo
Visibilità : 
Base nubi : 
>= 8 km
>= 3000ft
5 / 8 km
1000 / 3000 ft
1500m / 5 km
500 / 1000 ft
800 / 1500m
200 / 500 ft
< 800m
< 200 ft
Simboli :   Temporali  Nebbia  Neve Forte  Precipitazioni Forti  Vento > 20 kt
SIGMETs :   Varie  Temporali  Ghiacco  Turbolenza  Onda orograficha  Ceneri Vulcaniche






- Altitudine del aeroporto : 80 ft
- Codice IATA : LPL


EGGP - Liverpool John Lennon

ULTIMO METAR :
  • 071020Z 29014KT 9999 SCT012 BKN020 15/12 Q1009

METARs OBSOLETI :
  • 070950Z 29012KT 9999 OVC012 13/11 Q1009
  • 070920Z 30013KT 9999 -RA OVC012 13/11 Q1008
  • 070850Z 29011KT 9999 -RADZ OVC012 13/11 Q1008
  • 070820Z 28010KT 9999 OVC010 13/11 Q1008
  • 070750Z 30011KT 270V340 8000 -RA OVC010 13/11 Q1007

TAF AMD TAF EGGP
Valido dal 07 a 09 ore il 08 a 00 ore UTC


070954Z 0709/0724 30012KT 9999 BKN012
BECMG 0709/0712 SCT025
TEMPO 0709/0710 6000 RADZ
TEMPO 0710/0721 8000 SHRA
PROB30
TEMPO 0714/0718 4000 +SHRA BKN014CB
BECMG 0718/0721 08005KT
ATIS : +44 151 907 2000 (option 5 or ext 5150)
Met : +44 871 750 5150



MetMap, La meteo Aeronautica in un colpo d'occhio ! - Copyright ORBIFLY Dicembre 2007 - Disclaimer

ORBIFLY MET'MAP TEAM :

Programmazione e sviluppo : Alexandra Zaïnal
Concezione : Baudouin d'Aumeries
Aiuto per la programmazione : Marc-Olivier Méhu
Supporto tecnico e logistico : Manuel Goepfert
Aiuto per la traduzione : Arnaldo La Scala

Contatto : metmap@orbifly.com




FONTI E CREDITI :

   NOAA